sensor_id;sensor_type;location;lat;lon;timestamp;P1;durP1;ratioP1;P2;durP2;ratioP2
18612;SDS011;9436;52.152;21.032;2022-07-03T00:01:37;2.43;;;1.80;;
18612;SDS011;9436;52.152;21.032;2022-07-03T00:04:04;2.47;;;1.90;;
18612;SDS011;9436;52.152;21.032;2022-07-03T00:06:33;2.13;;;1.83;;
18612;SDS011;9436;52.152;21.032;2022-07-03T00:09:01;2.63;;;1.90;;
18612;SDS011;9436;52.152;21.032;2022-07-03T00:11:29;3.07;;;1.93;;
18612;SDS011;9436;52.152;21.032;2022-07-03T00:13:56;2.80;;;1.93;;
18612;SDS011;9436;52.152;21.032;2022-07-03T00:16:24;3.93;;;1.70;;
18612;SDS011;9436;52.152;21.032;2022-07-03T00:18:51;5.43;;;2.10;;
18612;SDS011;9436;52.152;21.032;2022-07-03T00:21:20;1.87;;;1.73;;
18612;SDS011;9436;52.152;21.032;2022-07-03T00:24:02;4.13;;;1.90;;
18612;SDS011;9436;52.152;21.032;2022-07-03T00:26:32;2.80;;;1.80;;
18612;SDS011;9436;52.152;21.032;2022-07-03T00:29:01;3.03;;;1.80;;
18612;SDS011;9436;52.152;21.032;2022-07-03T00:31:29;2.63;;;2.20;;
18612;SDS011;9436;52.152;21.032;2022-07-03T00:34:00;2.97;;;1.93;;
18612;SDS011;9436;52.152;21.032;2022-07-03T00:36:29;3.83;;;1.90;;
18612;SDS011;9436;52.152;21.032;2022-07-03T00:39:00;2.07;;;1.77;;
18612;SDS011;9436;52.152;21.032;2022-07-03T00:41:28;2.07;;;1.87;;
18612;SDS011;9436;52.152;21.032;2022-07-03T00:43:56;2.23;;;1.70;;
18612;SDS011;9436;52.152;21.032;2022-07-03T00:46:24;3.03;;;2.10;;
18612;SDS011;9436;52.152;21.032;2022-07-03T00:48:53;2.57;;;1.63;;
18612;SDS011;9436;52.152;21.032;2022-07-03T00:51:22;3.93;;;2.10;;
18612;SDS011;9436;52.152;21.032;2022-07-03T00:53:51;3.13;;;1.80;;
18612;SDS011;9436;52.152;21.032;2022-07-03T00:56:23;2.77;;;2.00;;
18612;SDS011;9436;52.152;21.032;2022-07-03T00:58:53;3.50;;;2.00;;
18612;SDS011;9436;52.152;21.032;2022-07-03T01:01:21;3.10;;;1.97;;
18612;SDS011;9436;52.152;21.032;2022-07-03T01:03:53;3.80;;;1.77;;
18612;SDS011;9436;52.152;21.032;2022-07-03T01:06:32;2.00;;;1.80;;
18612;SDS011;9436;52.152;21.032;2022-07-03T01:09:02;2.83;;;2.17;;
18612;SDS011;9436;52.152;21.032;2022-07-03T01:11:33;3.73;;;2.17;;
18612;SDS011;9436;52.152;21.032;2022-07-03T01:14:10;3.37;;;2.10;;
18612;SDS011;9436;52.152;21.032;2022-07-03T01:16:47;2.80;;;1.90;;
18612;SDS011;9436;52.152;21.032;2022-07-03T01:19:26;2.80;;;2.20;;
18612;SDS011;9436;52.152;21.032;2022-07-03T01:22:05;4.10;;;2.17;;
18612;SDS011;9436;52.152;21.032;2022-07-03T01:24:55;2.20;;;1.83;;
18612;SDS011;9436;52.152;21.032;2022-07-03T01:27:32;3.30;;;2.03;;
18612;SDS011;9436;52.152;21.032;2022-07-03T01:30:08;2.80;;;2.00;;
18612;SDS011;9436;52.152;21.032;2022-07-03T01:32:37;3.50;;;2.30;;
18612;SDS011;9436;52.152;21.032;2022-07-03T01:35:07;2.67;;;1.97;;
18612;SDS011;9436;52.152;21.032;2022-07-03T01:37:37;2.53;;;1.90;;
18612;SDS011;9436;52.152;21.032;2022-07-03T01:40:07;4.53;;;2.50;;
18612;SDS011;9436;52.152;21.032;2022-07-03T01:42:36;3.40;;;2.23;;
18612;SDS011;9436;52.152;21.032;2022-07-03T01:45:05;4.10;;;2.40;;
18612;SDS011;9436;52.152;21.032;2022-07-03T01:47:36;3.03;;;2.20;;
18612;SDS011;9436;52.152;21.032;2022-07-03T01:50:06;4.53;;;2.30;;
18612;SDS011;9436;52.152;21.032;2022-07-03T01:52:36;3.30;;;2.20;;
18612;SDS011;9436;52.152;21.032;2022-07-03T01:55:06;3.17;;;1.80;;
18612;SDS011;9436;52.152;21.032;2022-07-03T01:57:37;3.33;;;2.13;;
18612;SDS011;9436;52.152;21.032;2022-07-03T02:00:08;2.67;;;2.33;;
18612;SDS011;9436;52.152;21.032;2022-07-03T02:02:37;2.63;;;2.00;;
18612;SDS011;9436;52.152;21.032;2022-07-03T02:05:09;2.73;;;1.90;;
18612;SDS011;9436;52.152;21.032;2022-07-03T02:07:46;2.40;;;2.20;;
18612;SDS011;9436;52.152;21.032;2022-07-03T02:10:16;3.40;;;2.10;;
18612;SDS011;9436;52.152;21.032;2022-07-03T02:12:47;4.33;;;2.20;;
18612;SDS011;9436;52.152;21.032;2022-07-03T02:15:17;2.97;;;2.37;;
18612;SDS011;9436;52.152;21.032;2022-07-03T02:17:46;3.80;;;2.30;;
18612;SDS011;9436;52.152;21.032;2022-07-03T02:20:14;3.70;;;2.50;;
18612;SDS011;9436;52.152;21.032;2022-07-03T02:22:43;3.00;;;2.00;;
18612;SDS011;9436;52.152;21.032;2022-07-03T02:25:15;3.47;;;2.30;;
18612;SDS011;9436;52.152;21.032;2022-07-03T02:27:52;2.93;;;1.97;;
18612;SDS011;9436;52.152;21.032;2022-07-03T02:30:22;2.47;;;1.97;;
18612;SDS011;9436;52.152;21.032;2022-07-03T02:32:50;3.90;;;1.90;;
18612;SDS011;9436;52.152;21.032;2022-07-03T02:35:21;3.50;;;1.90;;
18612;SDS011;9436;52.152;21.032;2022-07-03T02:37:53;3.10;;;2.00;;
18612;SDS011;9436;52.152;21.032;2022-07-03T02:40:26;3.73;;;2.10;;
18612;SDS011;9436;52.152;21.032;2022-07-03T02:43:07;2.30;;;1.60;;
18612;SDS011;9436;52.152;21.032;2022-07-03T02:45:42;3.27;;;1.90;;
18612;SDS011;9436;52.152;21.032;2022-07-03T02:48:16;3.20;;;1.73;;
18612;SDS011;9436;52.152;21.032;2022-07-03T02:50:52;2.47;;;1.90;;
18612;SDS011;9436;52.152;21.032;2022-07-03T02:53:24;2.57;;;1.83;;
18612;SDS011;9436;52.152;21.032;2022-07-03T02:55:58;2.80;;;1.80;;
18612;SDS011;9436;52.152;21.032;2022-07-03T02:58:48;3.83;;;2.07;;
18612;SDS011;9436;52.152;21.032;2022-07-03T03:01:29;3.47;;;2.10;;
18612;SDS011;9436;52.152;21.032;2022-07-03T03:04:07;3.40;;;1.90;;
18612;SDS011;9436;52.152;21.032;2022-07-03T03:06:38;2.70;;;1.60;;
18612;SDS011;9436;52.152;21.032;2022-07-03T03:09:13;3.00;;;1.80;;
18612;SDS011;9436;52.152;21.032;2022-07-03T03:11:46;2.07;;;1.50;;
18612;SDS011;9436;52.152;21.032;2022-07-03T03:14:18;2.10;;;1.50;;
18612;SDS011;9436;52.152;21.032;2022-07-03T03:16:47;3.20;;;1.77;;
18612;SDS011;9436;52.152;21.032;2022-07-03T03:19:18;4.67;;;1.90;;
18612;SDS011;9436;52.152;21.032;2022-07-03T03:21:51;3.77;;;1.80;;
18612;SDS011;9436;52.152;21.032;2022-07-03T03:24:22;2.20;;;1.50;;
18612;SDS011;9436;52.152;21.032;2022-07-03T03:26:50;3.33;;;1.83;;
18612;SDS011;9436;52.152;21.032;2022-07-03T03:29:19;2.93;;;1.80;;
18612;SDS011;9436;52.152;21.032;2022-07-03T03:31:46;2.33;;;1.60;;
18612;SDS011;9436;52.152;21.032;2022-07-03T03:34:13;2.83;;;1.83;;
18612;SDS011;9436;52.152;21.032;2022-07-03T03:36:41;3.73;;;1.70;;
18612;SDS011;9436;52.152;21.032;2022-07-03T03:39:08;2.07;;;1.57;;
18612;SDS011;9436;52.152;21.032;2022-07-03T03:41:35;2.10;;;1.73;;
18612;SDS011;9436;52.152;21.032;2022-07-03T03:44:02;2.93;;;1.53;;
18612;SDS011;9436;52.152;21.032;2022-07-03T03:46:31;4.97;;;1.57;;
18612;SDS011;9436;52.152;21.032;2022-07-03T03:48:58;2.37;;;1.70;;
18612;SDS011;9436;52.152;21.032;2022-07-03T03:51:25;2.90;;;1.60;;
18612;SDS011;9436;52.152;21.032;2022-07-03T03:53:52;2.00;;;1.40;;
18612;SDS011;9436;52.152;21.032;2022-07-03T03:56:18;3.63;;;1.97;;
18612;SDS011;9436;52.152;21.032;2022-07-03T03:58:45;4.47;;;1.87;;
18612;SDS011;9436;52.152;21.032;2022-07-03T04:01:12;3.53;;;1.70;;
18612;SDS011;9436;52.152;21.032;2022-07-03T04:03:41;2.57;;;1.90;;
18612;SDS011;9436;52.152;21.032;2022-07-03T04:06:08;4.30;;;1.73;;
18612;SDS011;9436;52.152;21.032;2022-07-03T04:08:35;2.83;;;1.67;;
18612;SDS011;9436;52.152;21.032;2022-07-03T04:11:02;3.13;;;1.70;;
18612;SDS011;9436;52.152;21.032;2022-07-03T04:13:29;3.57;;;1.77;;
18612;SDS011;9436;52.152;21.032;2022-07-03T04:15:56;2.50;;;1.77;;
18612;SDS011;9436;52.152;21.032;2022-07-03T04:18:23;2.60;;;1.70;;
18612;SDS011;9436;52.152;21.032;2022-07-03T04:20:52;3.70;;;1.80;;
18612;SDS011;9436;52.152;21.032;2022-07-03T04:23:19;2.27;;;1.60;;
18612;SDS011;9436;52.152;21.032;2022-07-03T04:25:46;2.30;;;1.80;;
18612;SDS011;9436;52.152;21.032;2022-07-03T04:28:13;3.13;;;1.67;;
18612;SDS011;9436;52.152;21.032;2022-07-03T04:30:40;2.70;;;1.47;;
18612;SDS011;9436;52.152;21.032;2022-07-03T04:33:07;3.17;;;1.50;;
18612;SDS011;9436;52.152;21.032;2022-07-03T04:35:34;3.83;;;1.70;;
18612;SDS011;9436;52.152;21.032;2022-07-03T04:38:04;2.27;;;1.63;;
18612;SDS011;9436;52.152;21.032;2022-07-03T04:40:31;1.70;;;1.60;;
18612;SDS011;9436;52.152;21.032;2022-07-03T04:42:58;3.43;;;1.70;;
18612;SDS011;9436;52.152;21.032;2022-07-03T04:45:25;3.57;;;2.10;;
18612;SDS011;9436;52.152;21.032;2022-07-03T04:47:52;4.17;;;1.80;;
18612;SDS011;9436;52.152;21.032;2022-07-03T04:50:19;3.67;;;1.90;;
18612;SDS011;9436;52.152;21.032;2022-07-03T04:52:47;3.67;;;1.83;;
18612;SDS011;9436;52.152;21.032;2022-07-03T04:55:15;3.00;;;1.83;;
18612;SDS011;9436;52.152;21.032;2022-07-03T04:57:42;2.90;;;1.70;;
18612;SDS011;9436;52.152;21.032;2022-07-03T05:00:09;1.90;;;1.70;;
18612;SDS011;9436;52.152;21.032;2022-07-03T05:02:36;3.87;;;1.67;;
18612;SDS011;9436;52.152;21.032;2022-07-03T05:05:04;3.37;;;1.67;;
18612;SDS011;9436;52.152;21.032;2022-07-03T05:07:31;3.13;;;1.50;;
18612;SDS011;9436;52.152;21.032;2022-07-03T05:09:59;3.93;;;1.70;;
18612;SDS011;9436;52.152;21.032;2022-07-03T05:12:27;3.60;;;1.97;;
18612;SDS011;9436;52.152;21.032;2022-07-03T05:14:54;3.23;;;1.60;;
18612;SDS011;9436;52.152;21.032;2022-07-03T05:17:21;4.30;;;1.50;;
18612;SDS011;9436;52.152;21.032;2022-07-03T05:19:48;3.30;;;1.63;;
18612;SDS011;9436;52.152;21.032;2022-07-03T05:22:36;2.83;;;1.60;;
18612;SDS011;9436;52.152;21.032;2022-07-03T05:25:03;1.97;;;1.50;;
18612;SDS011;9436;52.152;21.032;2022-07-03T05:27:33;3.90;;;1.50;;
18612;SDS011;9436;52.152;21.032;2022-07-03T05:30:02;2.70;;;1.60;;
18612;SDS011;9436;52.152;21.032;2022-07-03T05:32:29;1.70;;;1.57;;
18612;SDS011;9436;52.152;21.032;2022-07-03T05:34:56;2.40;;;1.47;;
18612;SDS011;9436;52.152;21.032;2022-07-03T05:37:23;3.67;;;1.57;;
18612;SDS011;9436;52.152;21.032;2022-07-03T05:39:50;1.47;;;1.37;;
18612;SDS011;9436;52.152;21.032;2022-07-03T05:42:17;3.50;;;1.60;;
18612;SDS011;9436;52.152;21.032;2022-07-03T05:44:45;2.53;;;1.50;;
18612;SDS011;9436;52.152;21.032;2022-07-03T05:47:12;4.07;;;1.80;;
18612;SDS011;9436;52.152;21.032;2022-07-03T05:49:39;4.67;;;1.73;;
18612;SDS011;9436;52.152;21.032;2022-07-03T05:52:06;2.17;;;1.53;;
18612;SDS011;9436;52.152;21.032;2022-07-03T05:54:34;2.90;;;1.40;;
18612;SDS011;9436;52.152;21.032;2022-07-03T05:57:01;3.97;;;1.37;;
18612;SDS011;9436;52.152;21.032;2022-07-03T05:59:28;3.83;;;1.50;;
18612;SDS011;9436;52.152;21.032;2022-07-03T06:01:56;2.00;;;1.30;;
18612;SDS011;9436;52.152;21.032;2022-07-03T06:04:23;2.70;;;1.60;;
18612;SDS011;9436;52.152;21.032;2022-07-03T06:06:50;1.80;;;1.30;;
18612;SDS011;9436;52.152;21.032;2022-07-03T06:09:19;2.00;;;1.30;;
18612;SDS011;9436;52.152;21.032;2022-07-03T06:11:46;2.77;;;1.40;;
18612;SDS011;9436;52.152;21.032;2022-07-03T06:14:13;2.43;;;1.30;;
18612;SDS011;9436;52.152;21.032;2022-07-03T06:16:40;2.53;;;1.37;;
18612;SDS011;9436;52.152;21.032;2022-07-03T06:19:09;1.97;;;1.30;;
18612;SDS011;9436;52.152;21.032;2022-07-03T06:21:36;1.73;;;1.10;;
18612;SDS011;9436;52.152;21.032;2022-07-03T06:24:03;2.70;;;1.40;;
18612;SDS011;9436;52.152;21.032;2022-07-03T06:26:30;3.20;;;1.50;;
18612;SDS011;9436;52.152;21.032;2022-07-03T06:28:57;2.73;;;1.30;;
18612;SDS011;9436;52.152;21.032;2022-07-03T06:31:24;2.03;;;1.10;;
18612;SDS011;9436;52.152;21.032;2022-07-03T06:33:51;3.33;;;1.30;;
18612;SDS011;9436;52.152;21.032;2022-07-03T06:36:19;2.07;;;1.20;;
18612;SDS011;9436;52.152;21.032;2022-07-03T06:38:46;1.40;;;1.17;;
18612;SDS011;9436;52.152;21.032;2022-07-03T06:41:13;3.27;;;1.40;;
18612;SDS011;9436;52.152;21.032;2022-07-03T06:43:40;4.17;;;1.57;;
18612;SDS011;9436;52.152;21.032;2022-07-03T06:46:09;3.33;;;1.10;;
18612;SDS011;9436;52.152;21.032;2022-07-03T06:48:36;3.00;;;1.17;;
18612;SDS011;9436;52.152;21.032;2022-07-03T06:51:02;1.87;;;1.17;;
18612;SDS011;9436;52.152;21.032;2022-07-03T06:53:31;2.40;;;1.20;;
18612;SDS011;9436;52.152;21.032;2022-07-03T06:55:58;1.30;;;1.00;;
18612;SDS011;9436;52.152;21.032;2022-07-03T06:58:25;2.00;;;1.23;;
18612;SDS011;9436;52.152;21.032;2022-07-03T07:00:52;2.23;;;1.03;;
18612;SDS011;9436;52.152;21.032;2022-07-03T07:03:18;3.40;;;1.47;;
18612;SDS011;9436;52.152;21.032;2022-07-03T07:05:45;2.10;;;1.00;;
18612;SDS011;9436;52.152;21.032;2022-07-03T07:08:12;1.67;;;1.20;;
18612;SDS011;9436;52.152;21.032;2022-07-03T07:10:41;3.37;;;1.20;;
18612;SDS011;9436;52.152;21.032;2022-07-03T07:13:08;1.50;;;1.10;;
18612;SDS011;9436;52.152;21.032;2022-07-03T07:15:35;2.93;;;1.20;;
18612;SDS011;9436;52.152;21.032;2022-07-03T07:18:02;2.07;;;1.00;;
18612;SDS011;9436;52.152;21.032;2022-07-03T07:20:29;2.07;;;1.10;;
18612;SDS011;9436;52.152;21.032;2022-07-03T07:22:56;2.77;;;1.17;;
18612;SDS011;9436;52.152;21.032;2022-07-03T07:25:23;2.40;;;1.20;;
18612;SDS011;9436;52.152;21.032;2022-07-03T07:27:51;1.80;;;1.07;;
18612;SDS011;9436;52.152;21.032;2022-07-03T07:30:18;1.47;;;1.10;;
18612;SDS011;9436;52.152;21.032;2022-07-03T07:32:45;1.20;;;1.10;;
18612;SDS011;9436;52.152;21.032;2022-07-03T07:35:12;1.47;;;1.10;;
18612;SDS011;9436;52.152;21.032;2022-07-03T07:37:39;2.03;;;1.10;;
18612;SDS011;9436;52.152;21.032;2022-07-03T07:40:07;2.17;;;1.23;;
18612;SDS011;9436;52.152;21.032;2022-07-03T07:42:35;1.40;;;1.07;;
18612;SDS011;9436;52.152;21.032;2022-07-03T07:45:03;1.87;;;1.27;;
18612;SDS011;9436;52.152;21.032;2022-07-03T07:47:31;2.00;;;1.17;;
18612;SDS011;9436;52.152;21.032;2022-07-03T07:49:58;2.60;;;1.20;;
18612;SDS011;9436;52.152;21.032;2022-07-03T07:52:25;1.43;;;1.33;;
18612;SDS011;9436;52.152;21.032;2022-07-03T07:54:52;2.67;;;1.30;;
18612;SDS011;9436;52.152;21.032;2022-07-03T07:57:19;2.90;;;1.40;;
18612;SDS011;9436;52.152;21.032;2022-07-03T07:59:46;3.00;;;1.17;;
18612;SDS011;9436;52.152;21.032;2022-07-03T08:02:14;1.30;;;1.13;;
18612;SDS011;9436;52.152;21.032;2022-07-03T08:04:59;3.27;;;1.30;;
18612;SDS011;9436;52.152;21.032;2022-07-03T08:07:43;2.47;;;1.20;;
18612;SDS011;9436;52.152;21.032;2022-07-03T08:10:10;1.50;;;1.23;;
18612;SDS011;9436;52.152;21.032;2022-07-03T08:12:37;2.20;;;1.20;;
18612;SDS011;9436;52.152;21.032;2022-07-03T08:15:04;2.50;;;1.30;;
18612;SDS011;9436;52.152;21.032;2022-07-03T08:17:33;2.23;;;1.27;;
18612;SDS011;9436;52.152;21.032;2022-07-03T08:20:00;1.63;;;1.10;;
18612;SDS011;9436;52.152;21.032;2022-07-03T08:22:27;1.73;;;1.10;;
18612;SDS011;9436;52.152;21.032;2022-07-03T08:24:54;1.40;;;0.90;;
18612;SDS011;9436;52.152;21.032;2022-07-03T08:27:21;1.47;;;1.23;;
18612;SDS011;9436;52.152;21.032;2022-07-03T08:29:48;2.03;;;1.13;;
18612;SDS011;9436;52.152;21.032;2022-07-03T08:32:14;3.67;;;1.27;;
18612;SDS011;9436;52.152;21.032;2022-07-03T08:34:43;2.10;;;1.10;;
18612;SDS011;9436;52.152;21.032;2022-07-03T08:37:10;1.97;;;1.20;;
18612;SDS011;9436;52.152;21.032;2022-07-03T08:39:37;1.60;;;1.00;;
18612;SDS011;9436;52.152;21.032;2022-07-03T08:42:04;1.70;;;1.10;;
18612;SDS011;9436;52.152;21.032;2022-07-03T08:44:32;2.13;;;1.37;;
18612;SDS011;9436;52.152;21.032;2022-07-03T08:47:02;2.17;;;1.20;;
18612;SDS011;9436;52.152;21.032;2022-07-03T08:49:32;2.07;;;1.33;;
18612;SDS011;9436;52.152;21.032;2022-07-03T08:52:01;3.37;;;1.17;;
18612;SDS011;9436;52.152;21.032;2022-07-03T08:54:32;2.13;;;1.20;;
18612;SDS011;9436;52.152;21.032;2022-07-03T08:56:59;1.80;;;1.10;;
18612;SDS011;9436;52.152;21.032;2022-07-03T08:59:27;2.23;;;1.17;;
18612;SDS011;9436;52.152;21.032;2022-07-03T09:01:58;2.03;;;1.17;;
18612;SDS011;9436;52.152;21.032;2022-07-03T09:04:25;1.60;;;1.30;;
18612;SDS011;9436;52.152;21.032;2022-07-03T09:06:54;1.93;;;1.03;;
18612;SDS011;9436;52.152;21.032;2022-07-03T09:09:23;1.33;;;1.07;;
18612;SDS011;9436;52.152;21.032;2022-07-03T09:11:50;1.90;;;1.07;;
18612;SDS011;9436;52.152;21.032;2022-07-03T09:14:17;1.47;;;1.00;;
18612;SDS011;9436;52.152;21.032;2022-07-03T09:16:45;1.77;;;1.17;;
18612;SDS011;9436;52.152;21.032;2022-07-03T09:19:12;2.23;;;1.20;;
18612;SDS011;9436;52.152;21.032;2022-07-03T09:21:39;2.30;;;1.20;;
18612;SDS011;9436;52.152;21.032;2022-07-03T09:24:07;1.47;;;0.90;;
18612;SDS011;9436;52.152;21.032;2022-07-03T09:26:37;2.83;;;1.37;;
18612;SDS011;9436;52.152;21.032;2022-07-03T09:29:16;2.47;;;1.30;;
18612;SDS011;9436;52.152;21.032;2022-07-03T09:31:44;1.40;;;1.17;;
18612;SDS011;9436;52.152;21.032;2022-07-03T09:34:21;2.33;;;1.20;;
18612;SDS011;9436;52.152;21.032;2022-07-03T09:36:49;2.77;;;1.30;;
18612;SDS011;9436;52.152;21.032;2022-07-03T09:39:17;2.07;;;1.30;;
18612;SDS011;9436;52.152;21.032;2022-07-03T09:41:57;3.80;;;1.40;;
18612;SDS011;9436;52.152;21.032;2022-07-03T09:44:32;3.20;;;1.30;;
18612;SDS011;9436;52.152;21.032;2022-07-03T09:47:10;1.97;;;1.10;;
18612;SDS011;9436;52.152;21.032;2022-07-03T09:49:46;2.27;;;1.30;;
18612;SDS011;9436;52.152;21.032;2022-07-03T09:55:00;2.30;;;1.27;;
18612;SDS011;9436;52.152;21.032;2022-07-03T09:57:39;1.90;;;1.20;;
18612;SDS011;9436;52.152;21.032;2022-07-03T10:00:08;2.47;;;1.30;;
18612;SDS011;9436;52.152;21.032;2022-07-03T10:02:48;2.37;;;1.30;;
18612;SDS011;9436;52.152;21.032;2022-07-03T10:05:18;1.60;;;1.17;;
18612;SDS011;9436;52.152;21.032;2022-07-03T10:07:50;3.90;;;1.50;;
18612;SDS011;9436;52.152;21.032;2022-07-03T10:10:19;1.80;;;1.00;;
18612;SDS011;9436;52.152;21.032;2022-07-03T10:12:48;1.63;;;1.23;;
18612;SDS011;9436;52.152;21.032;2022-07-03T10:15:17;2.30;;;1.10;;
18612;SDS011;9436;52.152;21.032;2022-07-03T10:17:47;1.73;;;1.10;;
18612;SDS011;9436;52.152;21.032;2022-07-03T10:20:15;0.90;;;0.90;;
18612;SDS011;9436;52.152;21.032;2022-07-03T10:22:47;2.00;;;1.20;;
18612;SDS011;9436;52.152;21.032;2022-07-03T10:25:14;2.30;;;1.27;;
18612;SDS011;9436;52.152;21.032;2022-07-03T10:27:43;3.27;;;1.30;;
18612;SDS011;9436;52.152;21.032;2022-07-03T10:30:13;3.00;;;1.27;;
18612;SDS011;9436;52.152;21.032;2022-07-03T10:32:42;1.53;;;1.30;;
18612;SDS011;9436;52.152;21.032;2022-07-03T10:35:11;1.57;;;1.20;;
18612;SDS011;9436;52.152;21.032;2022-07-03T10:37:43;1.20;;;1.10;;
18612;SDS011;9436;52.152;21.032;2022-07-03T10:40:20;2.00;;;1.40;;
18612;SDS011;9436;52.152;21.032;2022-07-03T10:43:09;2.20;;;1.20;;
18612;SDS011;9436;52.152;21.032;2022-07-03T10:46:10;2.50;;;1.17;;
18612;SDS011;9436;52.152;21.032;2022-07-03T10:48:52;2.13;;;1.17;;
18612;SDS011;9436;52.152;21.032;2022-07-03T10:51:23;1.93;;;1.30;;
18612;SDS011;9436;52.152;21.032;2022-07-03T10:54:00;1.33;;;1.10;;
18612;SDS011;9436;52.152;21.032;2022-07-03T10:59:58;1.30;;;1.10;;
18612;SDS011;9436;52.152;21.032;2022-07-03T11:02:35;1.23;;;1.10;;
18612;SDS011;9436;52.152;21.032;2022-07-03T11:05:10;2.43;;;1.30;;
18612;SDS011;9436;52.152;21.032;2022-07-03T11:08:05;1.23;;;1.13;;
18612;SDS011;9436;52.152;21.032;2022-07-03T11:10:37;2.47;;;1.20;;
18612;SDS011;9436;52.152;21.032;2022-07-03T11:13:09;2.80;;;1.30;;
18612;SDS011;9436;52.152;21.032;2022-07-03T11:15:42;2.70;;;1.20;;
18612;SDS011;9436;52.152;21.032;2022-07-03T11:18:16;2.43;;;1.10;;
18612;SDS011;9436;52.152;21.032;2022-07-03T11:24:17;1.17;;;1.03;;
18612;SDS011;9436;52.152;21.032;2022-07-03T11:29:55;2.27;;;1.33;;
18612;SDS011;9436;52.152;21.032;2022-07-03T11:38:28;1.30;;;1.20;;
18612;SDS011;9436;52.152;21.032;2022-07-03T11:40:56;2.30;;;1.30;;
18612;SDS011;9436;52.152;21.032;2022-07-03T11:43:24;1.30;;;1.20;;
18612;SDS011;9436;52.152;21.032;2022-07-03T11:45:52;1.67;;;1.10;;
18612;SDS011;9436;52.152;21.032;2022-07-03T11:48:20;1.67;;;1.30;;
18612;SDS011;9436;52.152;21.032;2022-07-03T11:50:48;1.63;;;1.10;;
18612;SDS011;9436;52.152;21.032;2022-07-03T11:53:19;1.10;;;1.00;;
18612;SDS011;9436;52.152;21.032;2022-07-03T11:55:50;1.67;;;0.90;;
18612;SDS011;9436;52.152;21.032;2022-07-03T11:58:19;0.90;;;0.90;;
18612;SDS011;9436;52.152;21.032;2022-07-03T12:00:46;1.20;;;0.90;;
18612;SDS011;9436;52.152;21.032;2022-07-03T12:03:20;1.30;;;1.07;;
18612;SDS011;9436;52.152;21.032;2022-07-03T12:05:49;1.63;;;1.00;;
18612;SDS011;9436;52.152;21.032;2022-07-03T12:08:27;1.17;;;1.07;;
18612;SDS011;9436;52.152;21.032;2022-07-03T12:10:58;1.27;;;1.00;;
18612;SDS011;9436;52.152;21.032;2022-07-03T12:13:27;1.20;;;1.10;;
18612;SDS011;9436;52.152;21.032;2022-07-03T12:16:00;2.50;;;1.20;;
18612;SDS011;9436;52.152;21.032;2022-07-03T12:18:42;1.37;;;1.27;;
18612;SDS011;9436;52.152;21.032;2022-07-03T12:21:13;1.17;;;1.07;;
18612;SDS011;9436;52.152;21.032;2022-07-03T12:23:43;1.87;;;1.10;;
18612;SDS011;9436;52.152;21.032;2022-07-03T12:26:12;1.50;;;1.13;;
18612;SDS011;9436;52.152;21.032;2022-07-03T12:28:39;1.20;;;1.10;;
18612;SDS011;9436;52.152;21.032;2022-07-03T12:31:07;1.30;;;1.10;;
18612;SDS011;9436;52.152;21.032;2022-07-03T12:33:34;1.10;;;1.00;;
18612;SDS011;9436;52.152;21.032;2022-07-03T12:36:05;1.30;;;1.20;;
18612;SDS011;9436;52.152;21.032;2022-07-03T12:38:33;1.10;;;1.00;;
18612;SDS011;9436;52.152;21.032;2022-07-03T12:41:03;1.50;;;1.27;;
18612;SDS011;9436;52.152;21.032;2022-07-03T12:43:39;2.07;;;1.30;;
18612;SDS011;9436;52.152;21.032;2022-07-03T12:46:17;1.10;;;1.10;;
18612;SDS011;9436;52.152;21.032;2022-07-03T12:48:48;1.23;;;1.13;;
18612;SDS011;9436;52.152;21.032;2022-07-03T12:51:16;1.50;;;1.10;;
18612;SDS011;9436;52.152;21.032;2022-07-03T12:53:58;1.40;;;1.30;;
18612;SDS011;9436;52.152;21.032;2022-07-03T12:56:25;1.80;;;1.20;;
18612;SDS011;9436;52.152;21.032;2022-07-03T12:58:54;2.10;;;1.23;;
18612;SDS011;9436;52.152;21.032;2022-07-03T13:01:38;1.77;;;1.30;;
18612;SDS011;9436;52.152;21.032;2022-07-03T13:04:05;2.10;;;1.20;;
18612;SDS011;9436;52.152;21.032;2022-07-03T13:06:34;1.20;;;1.10;;
18612;SDS011;9436;52.152;21.032;2022-07-03T13:09:02;1.40;;;1.30;;
18612;SDS011;9436;52.152;21.032;2022-07-03T13:11:31;1.53;;;1.20;;
18612;SDS011;9436;52.152;21.032;2022-07-03T13:14:10;1.40;;;1.30;;
18612;SDS011;9436;52.152;21.032;2022-07-03T13:16:39;1.30;;;1.00;;
18612;SDS011;9436;52.152;21.032;2022-07-03T13:19:08;1.30;;;1.20;;
18612;SDS011;9436;52.152;21.032;2022-07-03T13:21:37;1.20;;;1.10;;
18612;SDS011;9436;52.152;21.032;2022-07-03T13:24:04;1.10;;;1.00;;
18612;SDS011;9436;52.152;21.032;2022-07-03T13:26:32;1.70;;;1.30;;
18612;SDS011;9436;52.152;21.032;2022-07-03T13:28:59;3.00;;;1.10;;
18612;SDS011;9436;52.152;21.032;2022-07-03T13:31:27;2.17;;;1.20;;
18612;SDS011;9436;52.152;21.032;2022-07-03T13:33:55;1.57;;;1.30;;
18612;SDS011;9436;52.152;21.032;2022-07-03T13:36:22;1.30;;;1.20;;
18612;SDS011;9436;52.152;21.032;2022-07-03T13:38:49;1.40;;;1.30;;
18612;SDS011;9436;52.152;21.032;2022-07-03T13:41:16;1.73;;;1.30;;
18612;SDS011;9436;52.152;21.032;2022-07-03T13:43:44;1.30;;;1.10;;
18612;SDS011;9436;52.152;21.032;2022-07-03T13:46:11;2.03;;;1.30;;
18612;SDS011;9436;52.152;21.032;2022-07-03T13:48:39;2.63;;;1.23;;
18612;SDS011;9436;52.152;21.032;2022-07-03T13:51:06;1.53;;;1.17;;
18612;SDS011;9436;52.152;21.032;2022-07-03T13:53:34;2.03;;;1.10;;
18612;SDS011;9436;52.152;21.032;2022-07-03T13:56:02;1.63;;;1.30;;
18612;SDS011;9436;52.152;21.032;2022-07-03T13:58:29;2.43;;;1.20;;
18612;SDS011;9436;52.152;21.032;2022-07-03T14:00:56;1.27;;;1.17;;
18612;SDS011;9436;52.152;21.032;2022-07-03T14:03:24;1.37;;;1.00;;
18612;SDS011;9436;52.152;21.032;2022-07-03T14:05:52;1.97;;;1.00;;
18612;SDS011;9436;52.152;21.032;2022-07-03T14:08:20;1.73;;;1.10;;
18612;SDS011;9436;52.152;21.032;2022-07-03T14:10:47;1.20;;;1.07;;
18612;SDS011;9436;52.152;21.032;2022-07-03T14:13:14;1.50;;;1.10;;
18612;SDS011;9436;52.152;21.032;2022-07-03T14:15:41;1.13;;;1.07;;
18612;SDS011;9436;52.152;21.032;2022-07-03T14:18:08;1.60;;;1.10;;
18612;SDS011;9436;52.152;21.032;2022-07-03T14:20:35;1.90;;;1.30;;
18612;SDS011;9436;52.152;21.032;2022-07-03T14:23:03;2.47;;;1.30;;
18612;SDS011;9436;52.152;21.032;2022-07-03T14:25:30;1.30;;;1.13;;
18612;SDS011;9436;52.152;21.032;2022-07-03T14:27:57;2.10;;;1.10;;
18612;SDS011;9436;52.152;21.032;2022-07-03T14:30:41;2.80;;;1.40;;
18612;SDS011;9436;52.152;21.032;2022-07-03T14:33:26;1.20;;;1.10;;
18612;SDS011;9436;52.152;21.032;2022-07-03T14:35:53;1.30;;;1.20;;
18612;SDS011;9436;52.152;21.032;2022-07-03T14:38:21;1.30;;;1.20;;
18612;SDS011;9436;52.152;21.032;2022-07-03T14:40:48;1.10;;;1.00;;
18612;SDS011;9436;52.152;21.032;2022-07-03T14:43:16;1.40;;;1.30;;
18612;SDS011;9436;52.152;21.032;2022-07-03T14:45:45;2.57;;;1.13;;
18612;SDS011;9436;52.152;21.032;2022-07-03T14:48:12;1.40;;;1.30;;
18612;SDS011;9436;52.152;21.032;2022-07-03T14:50:38;1.53;;;0.97;;
18612;SDS011;9436;52.152;21.032;2022-07-03T14:53:06;2.23;;;1.20;;
18612;SDS011;9436;52.152;21.032;2022-07-03T14:55:37;2.33;;;1.43;;
18612;SDS011;9436;52.152;21.032;2022-07-03T14:58:09;1.37;;;1.23;;
18612;SDS011;9436;52.152;21.032;2022-07-03T15:00:46;1.50;;;1.20;;
18612;SDS011;9436;52.152;21.032;2022-07-03T15:03:18;1.47;;;1.20;;
18612;SDS011;9436;52.152;21.032;2022-07-03T15:05:50;1.20;;;1.10;;
18612;SDS011;9436;52.152;21.032;2022-07-03T15:08:34;1.37;;;1.13;;
18612;SDS011;9436;52.152;21.032;2022-07-03T15:11:14;1.90;;;1.10;;
18612;SDS011;9436;52.152;21.032;2022-07-03T15:13:59;1.90;;;1.30;;
18612;SDS011;9436;52.152;21.032;2022-07-03T15:16:29;1.50;;;1.40;;
18612;SDS011;9436;52.152;21.032;2022-07-03T15:18:58;1.03;;;1.03;;
18612;SDS011;9436;52.152;21.032;2022-07-03T15:21:26;1.30;;;1.20;;
18612;SDS011;9436;52.152;21.032;2022-07-03T15:23:56;1.80;;;1.30;;